sensor_id;sensor_type;location;lat;lon;timestamp;P1;durP1;ratioP1;P2;durP2;ratioP2
71800;SDS011;59647;55.838;37.292;2022-07-10T00:01:28;14.60;;;9.45;;
71800;SDS011;59647;55.838;37.292;2022-07-10T00:03:53;17.50;;;9.65;;
71800;SDS011;59647;55.838;37.292;2022-07-10T00:06:20;15.52;;;9.30;;
71800;SDS011;59647;55.838;37.292;2022-07-10T00:08:45;14.57;;;8.50;;
71800;SDS011;59647;55.838;37.292;2022-07-10T00:11:11;15.60;;;9.50;;
71800;SDS011;59647;55.838;37.292;2022-07-10T00:13:37;15.57;;;9.40;;
71800;SDS011;59647;55.838;37.292;2022-07-10T00:16:03;15.40;;;9.20;;
71800;SDS011;59647;55.838;37.292;2022-07-10T00:18:29;13.07;;;8.25;;
71800;SDS011;59647;55.838;37.292;2022-07-10T00:20:55;16.08;;;9.85;;
71800;SDS011;59647;55.838;37.292;2022-07-10T00:23:21;14.68;;;9.77;;
71800;SDS011;59647;55.838;37.292;2022-07-10T00:25:47;12.88;;;8.10;;
71800;SDS011;59647;55.838;37.292;2022-07-10T00:28:13;16.02;;;8.95;;
71800;SDS011;59647;55.838;37.292;2022-07-10T00:30:38;15.00;;;9.50;;
71800;SDS011;59647;55.838;37.292;2022-07-10T00:33:04;13.60;;;8.88;;
71800;SDS011;59647;55.838;37.292;2022-07-10T00:35:30;15.57;;;10.10;;
71800;SDS011;59647;55.838;37.292;2022-07-10T00:37:56;13.07;;;9.32;;
71800;SDS011;59647;55.838;37.292;2022-07-10T00:40:22;12.68;;;9.18;;
71800;SDS011;59647;55.838;37.292;2022-07-10T00:42:47;14.80;;;9.38;;
71800;SDS011;59647;55.838;37.292;2022-07-10T00:45:13;13.02;;;7.65;;
71800;SDS011;59647;55.838;37.292;2022-07-10T00:47:39;14.82;;;9.35;;
71800;SDS011;59647;55.838;37.292;2022-07-10T00:50:05;16.35;;;9.95;;
71800;SDS011;59647;55.838;37.292;2022-07-10T00:52:32;16.50;;;9.27;;
71800;SDS011;59647;55.838;37.292;2022-07-10T00:55:04;13.30;;;9.50;;
71800;SDS011;59647;55.838;37.292;2022-07-10T00:57:31;14.75;;;10.38;;
71800;SDS011;59647;55.838;37.292;2022-07-10T00:59:58;17.08;;;10.63;;
71800;SDS011;59647;55.838;37.292;2022-07-10T01:02:24;14.10;;;9.75;;
71800;SDS011;59647;55.838;37.292;2022-07-10T01:04:50;15.48;;;10.43;;
71800;SDS011;59647;55.838;37.292;2022-07-10T01:07:17;13.77;;;10.27;;
71800;SDS011;59647;55.838;37.292;2022-07-10T01:09:42;16.88;;;11.40;;
71800;SDS011;59647;55.838;37.292;2022-07-10T01:12:09;22.58;;;11.98;;
71800;SDS011;59647;55.838;37.292;2022-07-10T01:14:37;20.08;;;12.73;;
71800;SDS011;59647;55.838;37.292;2022-07-10T01:17:06;19.35;;;11.48;;
71800;SDS011;59647;55.838;37.292;2022-07-10T01:19:32;25.02;;;14.10;;
71800;SDS011;59647;55.838;37.292;2022-07-10T01:21:58;17.08;;;12.60;;
71800;SDS011;59647;55.838;37.292;2022-07-10T01:24:25;22.23;;;13.88;;
71800;SDS011;59647;55.838;37.292;2022-07-10T01:26:51;20.00;;;13.73;;
71800;SDS011;59647;55.838;37.292;2022-07-10T01:29:17;20.38;;;13.30;;
71800;SDS011;59647;55.838;37.292;2022-07-10T01:31:43;21.42;;;12.00;;
71800;SDS011;59647;55.838;37.292;2022-07-10T01:34:10;22.05;;;13.88;;
71800;SDS011;59647;55.838;37.292;2022-07-10T01:36:36;18.63;;;12.05;;
71800;SDS011;59647;55.838;37.292;2022-07-10T01:39:03;22.02;;;11.70;;
71800;SDS011;59647;55.838;37.292;2022-07-10T01:41:30;17.52;;;11.90;;
71800;SDS011;59647;55.838;37.292;2022-07-10T01:43:55;16.75;;;9.68;;
71800;SDS011;59647;55.838;37.292;2022-07-10T01:46:21;19.38;;;11.70;;
71800;SDS011;59647;55.838;37.292;2022-07-10T01:48:47;16.85;;;12.18;;
71800;SDS011;59647;55.838;37.292;2022-07-10T01:51:13;16.65;;;11.45;;
71800;SDS011;59647;55.838;37.292;2022-07-10T01:53:39;18.17;;;12.55;;
71800;SDS011;59647;55.838;37.292;2022-07-10T01:56:09;17.98;;;11.35;;
71800;SDS011;59647;55.838;37.292;2022-07-10T01:58:37;20.55;;;11.77;;
71800;SDS011;59647;55.838;37.292;2022-07-10T02:01:03;16.65;;;11.30;;
71800;SDS011;59647;55.838;37.292;2022-07-10T02:03:30;18.00;;;10.68;;
71800;SDS011;59647;55.838;37.292;2022-07-10T02:06:15;17.98;;;10.88;;
71800;SDS011;59647;55.838;37.292;2022-07-10T02:08:42;13.30;;;10.13;;
71800;SDS011;59647;55.838;37.292;2022-07-10T02:11:08;15.52;;;9.95;;
71800;SDS011;59647;55.838;37.292;2022-07-10T02:13:33;16.90;;;11.20;;
71800;SDS011;59647;55.838;37.292;2022-07-10T02:15:59;17.98;;;11.05;;
71800;SDS011;59647;55.838;37.292;2022-07-10T02:18:26;12.27;;;8.15;;
71800;SDS011;59647;55.838;37.292;2022-07-10T02:20:52;16.52;;;10.50;;
71800;SDS011;59647;55.838;37.292;2022-07-10T02:23:18;17.85;;;10.75;;
71800;SDS011;59647;55.838;37.292;2022-07-10T02:25:44;14.70;;;9.88;;
71800;SDS011;59647;55.838;37.292;2022-07-10T02:28:10;17.30;;;11.40;;
71800;SDS011;59647;55.838;37.292;2022-07-10T02:30:36;14.07;;;9.45;;
71800;SDS011;59647;55.838;37.292;2022-07-10T02:33:02;12.40;;;9.00;;
71800;SDS011;59647;55.838;37.292;2022-07-10T02:35:28;13.68;;;9.65;;
71800;SDS011;59647;55.838;37.292;2022-07-10T02:37:53;13.57;;;9.38;;
71800;SDS011;59647;55.838;37.292;2022-07-10T02:40:19;14.77;;;7.82;;
71800;SDS011;59647;55.838;37.292;2022-07-10T02:42:45;12.38;;;7.18;;
71800;SDS011;59647;55.838;37.292;2022-07-10T02:45:11;11.10;;;6.57;;
71800;SDS011;59647;55.838;37.292;2022-07-10T02:47:37;8.40;;;6.38;;
71800;SDS011;59647;55.838;37.292;2022-07-10T02:50:03;12.40;;;7.18;;
71800;SDS011;59647;55.838;37.292;2022-07-10T02:52:29;11.32;;;8.02;;
71800;SDS011;59647;55.838;37.292;2022-07-10T02:54:56;11.43;;;7.50;;
71800;SDS011;59647;55.838;37.292;2022-07-10T02:57:22;13.80;;;7.97;;
71800;SDS011;59647;55.838;37.292;2022-07-10T02:59:49;12.32;;;7.47;;
71800;SDS011;59647;55.838;37.292;2022-07-10T03:02:14;12.70;;;6.97;;
71800;SDS011;59647;55.838;37.292;2022-07-10T03:04:41;12.52;;;7.60;;
71800;SDS011;59647;55.838;37.292;2022-07-10T03:07:07;10.43;;;7.50;;
71800;SDS011;59647;55.838;37.292;2022-07-10T03:09:33;11.82;;;8.15;;
71800;SDS011;59647;55.838;37.292;2022-07-10T03:11:59;13.90;;;7.97;;
71800;SDS011;59647;55.838;37.292;2022-07-10T03:14:25;10.93;;;6.78;;
71800;SDS011;59647;55.838;37.292;2022-07-10T03:16:51;12.00;;;6.68;;
71800;SDS011;59647;55.838;37.292;2022-07-10T03:19:17;12.55;;;7.28;;
71800;SDS011;59647;55.838;37.292;2022-07-10T03:21:43;11.57;;;6.90;;
71800;SDS011;59647;55.838;37.292;2022-07-10T03:24:09;11.98;;;7.07;;
71800;SDS011;59647;55.838;37.292;2022-07-10T03:26:35;11.43;;;7.03;;
71800;SDS011;59647;55.838;37.292;2022-07-10T03:29:01;9.88;;;6.32;;
71800;SDS011;59647;55.838;37.292;2022-07-10T03:31:27;12.93;;;5.82;;
71800;SDS011;59647;55.838;37.292;2022-07-10T03:33:53;10.98;;;5.85;;
71800;SDS011;59647;55.838;37.292;2022-07-10T03:36:19;10.80;;;6.15;;
71800;SDS011;59647;55.838;37.292;2022-07-10T03:38:44;8.48;;;5.55;;
71800;SDS011;59647;55.838;37.292;2022-07-10T03:41:12;10.95;;;7.35;;
71800;SDS011;59647;55.838;37.292;2022-07-10T03:43:38;11.43;;;6.85;;
71800;SDS011;59647;55.838;37.292;2022-07-10T03:46:04;9.93;;;6.65;;
71800;SDS011;59647;55.838;37.292;2022-07-10T03:48:30;16.70;;;8.75;;
71800;SDS011;59647;55.838;37.292;2022-07-10T03:50:57;18.58;;;7.55;;
71800;SDS011;59647;55.838;37.292;2022-07-10T03:53:24;10.40;;;6.85;;
71800;SDS011;59647;55.838;37.292;2022-07-10T03:55:49;9.60;;;5.90;;
71800;SDS011;59647;55.838;37.292;2022-07-10T03:58:15;10.27;;;6.03;;
71800;SDS011;59647;55.838;37.292;2022-07-10T04:00:41;9.95;;;6.65;;
71800;SDS011;59647;55.838;37.292;2022-07-10T04:03:08;9.13;;;6.32;;
71800;SDS011;59647;55.838;37.292;2022-07-10T04:05:34;10.68;;;6.55;;
71800;SDS011;59647;55.838;37.292;2022-07-10T04:08:00;14.55;;;6.57;;
71800;SDS011;59647;55.838;37.292;2022-07-10T04:10:28;13.43;;;5.82;;
71800;SDS011;59647;55.838;37.292;2022-07-10T04:12:55;13.63;;;7.13;;
71800;SDS011;59647;55.838;37.292;2022-07-10T04:15:21;12.15;;;7.88;;
71800;SDS011;59647;55.838;37.292;2022-07-10T04:17:50;12.13;;;7.28;;
71800;SDS011;59647;55.838;37.292;2022-07-10T04:20:16;14.05;;;8.90;;
71800;SDS011;59647;55.838;37.292;2022-07-10T04:22:43;13.23;;;7.80;;
71800;SDS011;59647;55.838;37.292;2022-07-10T04:25:09;12.95;;;8.07;;
71800;SDS011;59647;55.838;37.292;2022-07-10T04:27:36;14.93;;;8.38;;
71800;SDS011;59647;55.838;37.292;2022-07-10T04:30:02;13.02;;;8.55;;
71800;SDS011;59647;55.838;37.292;2022-07-10T04:32:29;13.02;;;7.78;;
71800;SDS011;59647;55.838;37.292;2022-07-10T04:34:55;11.23;;;6.85;;
71800;SDS011;59647;55.838;37.292;2022-07-10T04:37:21;14.15;;;7.10;;
71800;SDS011;59647;55.838;37.292;2022-07-10T04:39:47;11.75;;;7.20;;
71800;SDS011;59647;55.838;37.292;2022-07-10T04:42:12;13.40;;;7.00;;
71800;SDS011;59647;55.838;37.292;2022-07-10T04:44:38;10.82;;;6.70;;
71800;SDS011;59647;55.838;37.292;2022-07-10T04:47:05;11.10;;;6.50;;
71800;SDS011;59647;55.838;37.292;2022-07-10T04:49:31;18.13;;;7.00;;
71800;SDS011;59647;55.838;37.292;2022-07-10T04:51:57;13.13;;;6.15;;
71800;SDS011;59647;55.838;37.292;2022-07-10T04:54:24;12.48;;;6.55;;
71800;SDS011;59647;55.838;37.292;2022-07-10T04:56:49;9.73;;;6.25;;
71800;SDS011;59647;55.838;37.292;2022-07-10T04:59:15;10.38;;;6.60;;
71800;SDS011;59647;55.838;37.292;2022-07-10T05:01:41;12.88;;;7.13;;
71800;SDS011;59647;55.838;37.292;2022-07-10T05:04:07;12.90;;;6.15;;
71800;SDS011;59647;55.838;37.292;2022-07-10T05:06:34;10.95;;;6.93;;
71800;SDS011;59647;55.838;37.292;2022-07-10T05:09:00;10.23;;;6.57;;
71800;SDS011;59647;55.838;37.292;2022-07-10T05:11:27;12.98;;;6.50;;
71800;SDS011;59647;55.838;37.292;2022-07-10T05:13:52;9.57;;;6.30;;
71800;SDS011;59647;55.838;37.292;2022-07-10T05:16:18;10.30;;;6.55;;
71800;SDS011;59647;55.838;37.292;2022-07-10T05:18:44;9.68;;;5.88;;
71800;SDS011;59647;55.838;37.292;2022-07-10T05:21:10;10.05;;;6.00;;
71800;SDS011;59647;55.838;37.292;2022-07-10T05:23:37;12.93;;;6.20;;
71800;SDS011;59647;55.838;37.292;2022-07-10T05:26:04;11.45;;;5.55;;
71800;SDS011;59647;55.838;37.292;2022-07-10T05:28:30;9.77;;;5.80;;
71800;SDS011;59647;55.838;37.292;2022-07-10T05:30:56;9.80;;;5.13;;
71800;SDS011;59647;55.838;37.292;2022-07-10T05:33:22;12.25;;;5.40;;
71800;SDS011;59647;55.838;37.292;2022-07-10T05:35:48;11.50;;;5.75;;
71800;SDS011;59647;55.838;37.292;2022-07-10T05:38:13;18.67;;;6.07;;
71800;SDS011;59647;55.838;37.292;2022-07-10T05:40:39;8.75;;;5.93;;
71800;SDS011;59647;55.838;37.292;2022-07-10T05:43:05;12.73;;;5.43;;
71800;SDS011;59647;55.838;37.292;2022-07-10T05:45:31;10.35;;;5.65;;
71800;SDS011;59647;55.838;37.292;2022-07-10T05:47:57;12.93;;;6.10;;
71800;SDS011;59647;55.838;37.292;2022-07-10T05:50:23;12.48;;;5.40;;
71800;SDS011;59647;55.838;37.292;2022-07-10T05:52:48;10.00;;;5.40;;
71800;SDS011;59647;55.838;37.292;2022-07-10T05:55:14;9.73;;;5.80;;
71800;SDS011;59647;55.838;37.292;2022-07-10T05:57:41;9.13;;;5.95;;
71800;SDS011;59647;55.838;37.292;2022-07-10T06:00:07;8.35;;;5.65;;
71800;SDS011;59647;55.838;37.292;2022-07-10T06:02:39;14.05;;;6.20;;
71800;SDS011;59647;55.838;37.292;2022-07-10T06:05:05;11.93;;;6.32;;
71800;SDS011;59647;55.838;37.292;2022-07-10T06:07:31;11.73;;;6.55;;
71800;SDS011;59647;55.838;37.292;2022-07-10T06:09:57;12.73;;;5.93;;
71800;SDS011;59647;55.838;37.292;2022-07-10T06:12:23;9.32;;;5.60;;
71800;SDS011;59647;55.838;37.292;2022-07-10T06:14:49;15.15;;;6.38;;
71800;SDS011;59647;55.838;37.292;2022-07-10T06:17:15;10.48;;;5.25;;
71800;SDS011;59647;55.838;37.292;2022-07-10T06:19:41;9.73;;;6.13;;
71800;SDS011;59647;55.838;37.292;2022-07-10T06:22:06;9.00;;;5.78;;
71800;SDS011;59647;55.838;37.292;2022-07-10T06:24:51;8.95;;;5.20;;
71800;SDS011;59647;55.838;37.292;2022-07-10T06:27:16;12.30;;;5.78;;
71800;SDS011;59647;55.838;37.292;2022-07-10T06:29:42;10.52;;;5.95;;
71800;SDS011;59647;55.838;37.292;2022-07-10T06:32:08;10.77;;;5.85;;
71800;SDS011;59647;55.838;37.292;2022-07-10T06:34:43;44.08;;;9.68;;
71800;SDS011;59647;55.838;37.292;2022-07-10T06:37:09;34.50;;;9.63;;
71800;SDS011;59647;55.838;37.292;2022-07-10T06:39:35;11.13;;;7.35;;
71800;SDS011;59647;55.838;37.292;2022-07-10T06:42:05;9.07;;;6.20;;
71800;SDS011;59647;55.838;37.292;2022-07-10T06:44:39;14.68;;;6.45;;
71800;SDS011;59647;55.838;37.292;2022-07-10T06:47:06;12.15;;;6.32;;
71800;SDS011;59647;55.838;37.292;2022-07-10T06:49:52;10.10;;;6.45;;
71800;SDS011;59647;55.838;37.292;2022-07-10T06:52:18;17.25;;;7.20;;
71800;SDS011;59647;55.838;37.292;2022-07-10T06:54:44;18.98;;;5.90;;
71800;SDS011;59647;55.838;37.292;2022-07-10T06:57:10;16.50;;;6.57;;
71800;SDS011;59647;55.838;37.292;2022-07-10T06:59:37;12.52;;;6.43;;
71800;SDS011;59647;55.838;37.292;2022-07-10T07:02:03;18.20;;;7.50;;
71800;SDS011;59647;55.838;37.292;2022-07-10T07:04:29;15.45;;;7.00;;
71800;SDS011;59647;55.838;37.292;2022-07-10T07:06:54;12.00;;;7.05;;
71800;SDS011;59647;55.838;37.292;2022-07-10T07:09:20;10.82;;;6.38;;
71800;SDS011;59647;55.838;37.292;2022-07-10T07:11:46;26.33;;;7.78;;
71800;SDS011;59647;55.838;37.292;2022-07-10T07:14:12;56.15;;;11.48;;
71800;SDS011;59647;55.838;37.292;2022-07-10T07:16:38;31.55;;;8.02;;
71800;SDS011;59647;55.838;37.292;2022-07-10T07:19:08;11.13;;;5.78;;
71800;SDS011;59647;55.838;37.292;2022-07-10T07:21:43;10.15;;;5.60;;
71800;SDS011;59647;55.838;37.292;2022-07-10T07:24:27;14.52;;;6.85;;
71800;SDS011;59647;55.838;37.292;2022-07-10T07:26:53;15.05;;;7.25;;
71800;SDS011;59647;55.838;37.292;2022-07-10T07:29:19;14.57;;;6.90;;
71800;SDS011;59647;55.838;37.292;2022-07-10T07:31:45;10.57;;;5.72;;
71800;SDS011;59647;55.838;37.292;2022-07-10T07:34:11;10.27;;;7.20;;
71800;SDS011;59647;55.838;37.292;2022-07-10T07:36:37;16.13;;;7.78;;
71800;SDS011;59647;55.838;37.292;2022-07-10T07:39:03;13.85;;;6.75;;
71800;SDS011;59647;55.838;37.292;2022-07-10T07:41:29;14.77;;;7.70;;
71800;SDS011;59647;55.838;37.292;2022-07-10T07:43:55;15.18;;;7.30;;
71800;SDS011;59647;55.838;37.292;2022-07-10T07:46:21;10.82;;;6.32;;
71800;SDS011;59647;55.838;37.292;2022-07-10T07:48:47;11.73;;;6.50;;
71800;SDS011;59647;55.838;37.292;2022-07-10T07:51:13;14.77;;;6.97;;
71800;SDS011;59647;55.838;37.292;2022-07-10T07:53:39;22.52;;;7.80;;
71800;SDS011;59647;55.838;37.292;2022-07-10T07:56:05;14.85;;;7.93;;
71800;SDS011;59647;55.838;37.292;2022-07-10T07:58:31;16.58;;;6.82;;
71800;SDS011;59647;55.838;37.292;2022-07-10T08:00:59;14.38;;;6.93;;
71800;SDS011;59647;55.838;37.292;2022-07-10T08:03:26;12.05;;;7.18;;
71800;SDS011;59647;55.838;37.292;2022-07-10T08:05:52;15.27;;;7.85;;
71800;SDS011;59647;55.838;37.292;2022-07-10T08:08:22;11.13;;;6.47;;
71800;SDS011;59647;55.838;37.292;2022-07-10T08:10:48;9.95;;;6.20;;
71800;SDS011;59647;55.838;37.292;2022-07-10T08:13:14;30.75;;;14.68;;
71800;SDS011;59647;55.838;37.292;2022-07-10T08:15:41;17.90;;;6.13;;
71800;SDS011;59647;55.838;37.292;2022-07-10T08:18:07;13.88;;;7.30;;
71800;SDS011;59647;55.838;37.292;2022-07-10T08:20:33;8.48;;;5.18;;
71800;SDS011;59647;55.838;37.292;2022-07-10T08:22:59;14.50;;;6.82;;
71800;SDS011;59647;55.838;37.292;2022-07-10T08:25:25;13.07;;;7.80;;
71800;SDS011;59647;55.838;37.292;2022-07-10T08:27:52;14.93;;;7.13;;
71800;SDS011;59647;55.838;37.292;2022-07-10T08:30:18;10.52;;;6.53;;
71800;SDS011;59647;55.838;37.292;2022-07-10T08:32:44;11.85;;;7.45;;
71800;SDS011;59647;55.838;37.292;2022-07-10T08:35:10;10.23;;;6.65;;
71800;SDS011;59647;55.838;37.292;2022-07-10T08:40:08;13.00;;;7.45;;
71800;SDS011;59647;55.838;37.292;2022-07-10T08:42:36;15.85;;;6.55;;
71800;SDS011;59647;55.838;37.292;2022-07-10T08:45:02;13.25;;;7.95;;
71800;SDS011;59647;55.838;37.292;2022-07-10T08:47:29;9.68;;;6.15;;
71800;SDS011;59647;55.838;37.292;2022-07-10T08:49:56;10.68;;;6.97;;
71800;SDS011;59647;55.838;37.292;2022-07-10T08:52:34;12.88;;;6.45;;
71800;SDS011;59647;55.838;37.292;2022-07-10T08:55:12;13.75;;;6.47;;
71800;SDS011;59647;55.838;37.292;2022-07-10T08:57:40;10.15;;;6.07;;
71800;SDS011;59647;55.838;37.292;2022-07-10T09:00:08;12.07;;;6.43;;
71800;SDS011;59647;55.838;37.292;2022-07-10T09:02:35;11.13;;;6.82;;
71800;SDS011;59647;55.838;37.292;2022-07-10T09:05:01;12.82;;;6.68;;
71800;SDS011;59647;55.838;37.292;2022-07-10T09:07:35;10.68;;;6.47;;
71800;SDS011;59647;55.838;37.292;2022-07-10T09:10:06;14.68;;;7.13;;
71800;SDS011;59647;55.838;37.292;2022-07-10T09:15:32;13.00;;;7.28;;
71800;SDS011;59647;55.838;37.292;2022-07-10T09:18:03;11.98;;;7.15;;
71800;SDS011;59647;55.838;37.292;2022-07-10T09:20:33;11.40;;;6.63;;
71800;SDS011;59647;55.838;37.292;2022-07-10T09:23:22;10.50;;;6.38;;
71800;SDS011;59647;55.838;37.292;2022-07-10T09:25:51;12.85;;;6.78;;
71800;SDS011;59647;55.838;37.292;2022-07-10T09:28:18;17.40;;;8.13;;
71800;SDS011;59647;55.838;37.292;2022-07-10T09:30:45;31.48;;;8.50;;
71800;SDS011;59647;55.838;37.292;2022-07-10T09:46:36;12.38;;;6.72;;
71800;SDS011;59647;55.838;37.292;2022-07-10T09:49:08;13.20;;;6.75;;
71800;SDS011;59647;55.838;37.292;2022-07-10T09:51:37;15.60;;;6.43;;
71800;SDS011;59647;55.838;37.292;2022-07-10T09:54:06;15.93;;;7.82;;
71800;SDS011;59647;55.838;37.292;2022-07-10T09:56:38;17.38;;;7.28;;
71800;SDS011;59647;55.838;37.292;2022-07-10T09:59:12;15.45;;;6.57;;
71800;SDS011;59647;55.838;37.292;2022-07-10T10:01:47;8.85;;;6.43;;
71800;SDS011;59647;55.838;37.292;2022-07-10T10:04:17;11.05;;;7.03;;
71800;SDS011;59647;55.838;37.292;2022-07-10T10:06:50;11.02;;;5.57;;
71800;SDS011;59647;55.838;37.292;2022-07-10T10:09:21;12.73;;;5.05;;
71800;SDS011;59647;55.838;37.292;2022-07-10T10:11:51;13.50;;;6.97;;
71800;SDS011;59647;55.838;37.292;2022-07-10T10:16:53;8.70;;;4.22;;
71800;SDS011;59647;55.838;37.292;2022-07-10T10:19:23;8.85;;;4.03;;
71800;SDS011;59647;55.838;37.292;2022-07-10T10:22:08;6.82;;;3.97;;
71800;SDS011;59647;55.838;37.292;2022-07-10T10:24:34;5.93;;;3.50;;
71800;SDS011;59647;55.838;37.292;2022-07-10T10:27:04;9.30;;;4.43;;
71800;SDS011;59647;55.838;37.292;2022-07-10T10:29:31;5.95;;;3.83;;
71800;SDS011;59647;55.838;37.292;2022-07-10T10:32:00;5.78;;;3.70;;
71800;SDS011;59647;55.838;37.292;2022-07-10T10:34:45;10.20;;;3.80;;
71800;SDS011;59647;55.838;37.292;2022-07-10T10:39:59;9.00;;;3.72;;
71800;SDS011;59647;55.838;37.292;2022-07-10T10:42:35;10.20;;;4.47;;
71800;SDS011;59647;55.838;37.292;2022-07-10T10:48:07;6.03;;;3.20;;
71800;SDS011;59647;55.838;37.292;2022-07-10T10:50:41;5.38;;;3.45;;
71800;SDS011;59647;55.838;37.292;2022-07-10T10:53:22;7.50;;;3.20;;
71800;SDS011;59647;55.838;37.292;2022-07-10T10:58:26;4.43;;;3.10;;
71800;SDS011;59647;55.838;37.292;2022-07-10T11:01:23;5.53;;;3.88;;
71800;SDS011;59647;55.838;37.292;2022-07-10T11:06:52;5.25;;;3.35;;
71800;SDS011;59647;55.838;37.292;2022-07-10T11:14:37;9.63;;;3.25;;
71800;SDS011;59647;55.838;37.292;2022-07-10T11:17:10;6.78;;;3.13;;
71800;SDS011;59647;55.838;37.292;2022-07-10T11:19:36;6.70;;;3.63;;
71800;SDS011;59647;55.838;37.292;2022-07-10T11:24:45;9.10;;;3.58;;
71800;SDS011;59647;55.838;37.292;2022-07-10T11:30:49;7.90;;;3.00;;
71800;SDS011;59647;55.838;37.292;2022-07-10T11:33:19;9.82;;;3.53;;
71800;SDS011;59647;55.838;37.292;2022-07-10T11:35:50;5.85;;;2.70;;
71800;SDS011;59647;55.838;37.292;2022-07-10T11:38:24;4.78;;;2.20;;
71800;SDS011;59647;55.838;37.292;2022-07-10T11:40:51;8.07;;;3.05;;
71800;SDS011;59647;55.838;37.292;2022-07-10T11:43:21;4.28;;;2.60;;
71800;SDS011;59647;55.838;37.292;2022-07-10T11:45:50;5.22;;;2.95;;
71800;SDS011;59647;55.838;37.292;2022-07-10T11:48:26;5.20;;;2.70;;
71800;SDS011;59647;55.838;37.292;2022-07-10T11:50:53;7.70;;;3.05;;
71800;SDS011;59647;55.838;37.292;2022-07-10T11:53:24;8.45;;;2.78;;
71800;SDS011;59647;55.838;37.292;2022-07-10T11:55:52;7.35;;;2.92;;
71800;SDS011;59647;55.838;37.292;2022-07-10T11:58:20;3.90;;;2.80;;
71800;SDS011;59647;55.838;37.292;2022-07-10T12:00:59;7.38;;;3.03;;
71800;SDS011;59647;55.838;37.292;2022-07-10T12:03:43;4.13;;;2.33;;
71800;SDS011;59647;55.838;37.292;2022-07-10T12:06:10;4.78;;;2.90;;
71800;SDS011;59647;55.838;37.292;2022-07-10T12:08:43;3.85;;;2.45;;
71800;SDS011;59647;55.838;37.292;2022-07-10T12:11:11;4.43;;;2.55;;
71800;SDS011;59647;55.838;37.292;2022-07-10T12:13:38;7.72;;;3.03;;
71800;SDS011;59647;55.838;37.292;2022-07-10T12:16:06;6.18;;;2.80;;
71800;SDS011;59647;55.838;37.292;2022-07-10T12:18:33;6.03;;;2.90;;
71800;SDS011;59647;55.838;37.292;2022-07-10T12:21:02;5.97;;;2.80;;
71800;SDS011;59647;55.838;37.292;2022-07-10T12:23:29;7.03;;;3.22;;
71800;SDS011;59647;55.838;37.292;2022-07-10T12:25:55;6.22;;;2.60;;
71800;SDS011;59647;55.838;37.292;2022-07-10T12:28:22;8.55;;;2.97;;
71800;SDS011;59647;55.838;37.292;2022-07-10T12:30:51;6.78;;;3.88;;
71800;SDS011;59647;55.838;37.292;2022-07-10T12:33:19;5.30;;;3.13;;
71800;SDS011;59647;55.838;37.292;2022-07-10T12:35:56;11.15;;;3.30;;
71800;SDS011;59647;55.838;37.292;2022-07-10T12:38:25;11.65;;;5.20;;
71800;SDS011;59647;55.838;37.292;2022-07-10T12:41:10;10.18;;;4.72;;
71800;SDS011;59647;55.838;37.292;2022-07-10T12:43:38;8.20;;;3.70;;
71800;SDS011;59647;55.838;37.292;2022-07-10T12:46:19;9.15;;;3.75;;
71800;SDS011;59647;55.838;37.292;2022-07-10T12:51:29;6.70;;;3.25;;
71800;SDS011;59647;55.838;37.292;2022-07-10T12:54:00;15.88;;;4.95;;
71800;SDS011;59647;55.838;37.292;2022-07-10T12:56:27;10.60;;;3.80;;
71800;SDS011;59647;55.838;37.292;2022-07-10T12:58:58;6.28;;;2.58;;
71800;SDS011;59647;55.838;37.292;2022-07-10T13:01:28;4.80;;;2.65;;
71800;SDS011;59647;55.838;37.292;2022-07-10T13:04:05;7.18;;;2.80;;
71800;SDS011;59647;55.838;37.292;2022-07-10T13:06:32;7.25;;;2.80;;
71800;SDS011;59647;55.838;37.292;2022-07-10T13:11:45;6.03;;;2.90;;
71800;SDS011;59647;55.838;37.292;2022-07-10T13:14:12;8.43;;;2.53;;
71800;SDS011;59647;55.838;37.292;2022-07-10T13:16:37;5.40;;;2.75;;
71800;SDS011;59647;55.838;37.292;2022-07-10T13:19:03;5.95;;;2.33;;
71800;SDS011;59647;55.838;37.292;2022-07-10T13:21:31;7.20;;;2.42;;
71800;SDS011;59647;55.838;37.292;2022-07-10T13:24:01;5.75;;;2.45;;
71800;SDS011;59647;55.838;37.292;2022-07-10T13:26:28;9.98;;;3.60;;
71800;SDS011;59647;55.838;37.292;2022-07-10T13:28:55;6.95;;;2.72;;
71800;SDS011;59647;55.838;37.292;2022-07-10T13:31:23;6.75;;;2.88;;
71800;SDS011;59647;55.838;37.292;2022-07-10T13:33:49;5.05;;;2.72;;
71800;SDS011;59647;55.838;37.292;2022-07-10T13:36:19;5.38;;;3.03;;
71800;SDS011;59647;55.838;37.292;2022-07-10T13:38:47;6.38;;;2.60;;
71800;SDS011;59647;55.838;37.292;2022-07-10T13:41:16;5.78;;;2.70;;
71800;SDS011;59647;55.838;37.292;2022-07-10T13:43:42;3.70;;;2.45;;
71800;SDS011;59647;55.838;37.292;2022-07-10T13:46:08;5.63;;;3.00;;
71800;SDS011;59647;55.838;37.292;2022-07-10T13:48:36;6.60;;;2.78;;
71800;SDS011;59647;55.838;37.292;2022-07-10T13:51:02;10.23;;;2.72;;
71800;SDS011;59647;55.838;37.292;2022-07-10T13:53:28;6.13;;;3.38;;
71800;SDS011;59647;55.838;37.292;2022-07-10T13:55:54;6.07;;;2.80;;
71800;SDS011;59647;55.838;37.292;2022-07-10T13:58:20;5.97;;;3.00;;
71800;SDS011;59647;55.838;37.292;2022-07-10T14:00:48;6.13;;;2.85;;
71800;SDS011;59647;55.838;37.292;2022-07-10T14:03:16;7.82;;;2.88;;
71800;SDS011;59647;55.838;37.292;2022-07-10T14:05:42;3.75;;;2.45;;
71800;SDS011;59647;55.838;37.292;2022-07-10T14:08:08;6.53;;;2.92;;
71800;SDS011;59647;55.838;37.292;2022-07-10T14:10:35;7.13;;;2.80;;
71800;SDS011;59647;55.838;37.292;2022-07-10T14:13:01;4.05;;;2.78;;
71800;SDS011;59647;55.838;37.292;2022-07-10T14:15:28;5.72;;;3.15;;
71800;SDS011;59647;55.838;37.292;2022-07-10T14:17:54;9.25;;;3.10;;
71800;SDS011;59647;55.838;37.292;2022-07-10T14:20:21;9.10;;;3.33;;
71800;SDS011;59647;55.838;37.292;2022-07-10T14:22:46;8.07;;;4.18;;
71800;SDS011;59647;55.838;37.292;2022-07-10T14:25:13;4.65;;;3.08;;
71800;SDS011;59647;55.838;37.292;2022-07-10T14:27:39;6.97;;;3.13;;
71800;SDS011;59647;55.838;37.292;2022-07-10T14:30:06;12.30;;;2.97;;
71800;SDS011;59647;55.838;37.292;2022-07-10T14:32:33;10.13;;;3.67;;
71800;SDS011;59647;55.838;37.292;2022-07-10T14:34:59;14.32;;;3.45;;
71800;SDS011;59647;55.838;37.292;2022-07-10T14:37:24;7.05;;;3.13;;
71800;SDS011;59647;55.838;37.292;2022-07-10T14:39:53;7.72;;;3.40;;
71800;SDS011;59647;55.838;37.292;2022-07-10T14:42:20;8.60;;;3.22;;
71800;SDS011;59647;55.838;37.292;2022-07-10T15:20:36;5.00;;;2.30;;
71800;SDS011;59647;55.838;37.292;2022-07-10T15:23:05;5.43;;;1.70;;
71800;SDS011;59647;55.838;37.292;2022-07-10T15:25:30;4.22;;;1.67;;
71800;SDS011;59647;55.838;37.292;2022-07-10T15:27:59;5.35;;;2.13;;
71800;SDS011;59647;55.838;37.292;2022-07-10T15:30:27;4.40;;;1.98;;
71800;SDS011;59647;55.838;37.292;2022-07-10T15:32:53;6.22;;;2.50;;
71800;SDS011;59647;55.838;37.292;2022-07-10T15:35:20;10.45;;;2.03;;
71800;SDS011;59647;55.838;37.292;2022-07-10T15:37:46;5.15;;;2.13;;
71800;SDS011;59647;55.838;37.292;2022-07-10T15:40:13;7.35;;;2.30;;
71800;SDS011;59647;55.838;37.292;2022-07-10T15:42:39;6.57;;;2.42;;
71800;SDS011;59647;55.838;37.292;2022-07-10T15:45:06;9.60;;;2.55;;
71800;SDS011;59647;55.838;37.292;2022-07-10T15:47:32;5.05;;;2.50;;
71800;SDS011;59647;55.838;37.292;2022-07-10T15:49:59;4.35;;;1.90;;
71800;SDS011;59647;55.838;37.292;2022-07-10T15:52:25;7.47;;;2.25;;
71800;SDS011;59647;55.838;37.292;2022-07-10T15:54:51;4.60;;;2.30;;